createdAt,value
2022-09-16T00:01:57.274Z,80.56
2022-09-16T00:04:28.951Z,80.72
2022-09-16T00:07:00.505Z,80.85
2022-09-16T00:09:32.162Z,80.47
2022-09-16T00:12:04.848Z,79.79
2022-09-16T00:14:36.699Z,79.35
2022-09-16T00:17:08.361Z,79.65
2022-09-16T00:19:40.096Z,79.49
2022-09-16T00:22:12.007Z,79.02
2022-09-16T00:24:43.678Z,78.56
2022-09-16T00:27:15.506Z,78.58
2022-09-16T00:29:47.153Z,79.00
2022-09-16T00:32:18.876Z,78.90
2022-09-16T00:34:50.517Z,78.52
2022-09-16T00:37:22.120Z,79.26
2022-09-16T00:39:53.979Z,79.22
2022-09-16T00:42:25.638Z,78.93
2022-09-16T00:45:02.114Z,78.96
2022-09-16T00:47:39.295Z,80.51
2022-09-16T00:50:15.084Z,80.20
2022-09-16T00:52:47.099Z,79.60
2022-09-16T00:55:22.668Z,79.15
2022-09-16T00:57:56.197Z,79.13
2022-09-16T01:00:27.903Z,79.27
2022-09-16T01:02:59.781Z,79.07
2022-09-16T01:05:32.470Z,79.61
2022-09-16T01:08:04.530Z,79.79
2022-09-16T01:10:36.561Z,79.92
2022-09-16T01:13:12.736Z,79.76
2022-09-16T01:15:52.904Z,79.48
2022-09-16T01:18:32.621Z,79.60
2022-09-16T01:21:26.978Z,79.89
2022-09-16T01:24:42.020Z,79.77
2022-09-16T01:27:51.168Z,79.81
2022-09-16T01:30:53.526Z,80.13
2022-09-16T01:33:39.832Z,80.42
2022-09-16T01:36:26.374Z,80.81
2022-09-16T01:39:10.619Z,81.22
2022-09-16T01:41:55.826Z,81.29
2022-09-16T01:44:36.337Z,81.77
2022-09-16T01:47:13.517Z,81.59
2022-09-16T01:49:55.223Z,81.97
2022-09-16T01:52:38.852Z,81.60
2022-09-16T01:55:15.042Z,81.72
2022-09-16T01:57:53.249Z,81.98
2022-09-16T02:00:25.193Z,81.79
2022-09-16T02:03:01.178Z,82.42
2022-09-16T02:05:38.116Z,82.24
2022-09-16T02:08:13.272Z,82.07
2022-09-16T02:10:50.269Z,82.19
2022-09-16T02:13:26.880Z,82.31
2022-09-16T02:16:04.687Z,82.38
2022-09-16T02:18:42.122Z,82.34
2022-09-16T02:21:16.885Z,82.58
2022-09-16T02:23:52.532Z,82.82
2022-09-16T02:26:28.554Z,82.82
2022-09-16T02:29:01.747Z,83.04
2022-09-16T02:31:38.433Z,83.14
2022-09-16T02:34:13.883Z,82.94
2022-09-16T02:36:50.093Z,83.15
2022-09-16T02:39:26.007Z,84.03
2022-09-16T02:41:58.583Z,83.77
2022-09-16T02:44:30.620Z,84.00
2022-09-16T02:47:08.757Z,84.12
2022-09-16T02:49:46.809Z,84.08
2022-09-16T02:52:25.022Z,84.26
2022-09-16T02:55:02.717Z,84.17
2022-09-16T02:57:34.728Z,84.34
2022-09-16T03:00:07.935Z,84.63
2022-09-16T03:02:39.850Z,84.94
2022-09-16T03:05:11.909Z,85.02
2022-09-16T03:07:44.360Z,85.10
2022-09-16T03:10:16.200Z,84.95
2022-09-16T03:13:02.007Z,84.93
2022-09-16T03:15:46.878Z,85.32
2022-09-16T03:18:37.251Z,85.47
2022-09-16T03:21:18.493Z,85.89
2022-09-16T03:23:57.916Z,86.05
2022-09-16T03:26:36.046Z,86.50
2022-09-16T03:29:18.685Z,85.96
2022-09-16T03:31:57.716Z,86.52
2022-09-16T03:34:34.773Z,86.52
2022-09-16T03:37:18.559Z,87.05
2022-09-16T03:39:54.391Z,87.61
2022-09-16T03:42:26.384Z,88.92
2022-09-16T03:44:58.071Z,89.32
2022-09-16T03:47:29.845Z,90.49
2022-09-16T03:50:01.680Z,90.94
2022-09-16T03:52:33.506Z,91.41
2022-09-16T03:55:05.412Z,92.28
2022-09-16T03:57:37.399Z,91.49
2022-09-16T04:00:12.156Z,90.12
2022-09-16T04:02:44.042Z,90.11
2022-09-16T04:05:16.014Z,89.57
2022-09-16T04:07:49.161Z,88.99
2022-09-16T04:10:21.430Z,88.94
2022-09-16T04:12:57.133Z,88.90
2022-09-16T04:15:29.122Z,89.13
2022-09-16T04:18:03.015Z,89.03
2022-09-16T04:20:35.841Z,89.97
2022-09-16T04:23:05.946Z,90.64
2022-09-16T04:25:37.658Z,90.24
2022-09-16T04:28:09.444Z,90.15
2022-09-16T04:30:41.273Z,89.88
2022-09-16T04:33:13.297Z,89.63
2022-09-16T04:35:45.110Z,90.52
2022-09-16T04:38:16.789Z,91.51
2022-09-16T04:40:49.004Z,93.63
2022-09-16T04:43:20.761Z,94.03
2022-09-16T04:45:54.266Z,92.70
2022-09-16T04:48:26.364Z,91.46
2022-09-16T04:51:03.047Z,90.80
2022-09-16T04:53:34.741Z,90.62
2022-09-16T04:56:09.460Z,90.53
2022-09-16T04:58:41.061Z,90.52
2022-09-16T05:01:14.430Z,90.41
2022-09-16T05:03:48.392Z,91.51
2022-09-16T05:06:21.964Z,91.32
2022-09-16T05:08:55.551Z,90.54
2022-09-16T05:11:29.708Z,90.32
2022-09-16T05:14:03.303Z,90.88
2022-09-16T05:16:35.763Z,90.63
2022-09-16T05:19:07.452Z,89.97
2022-09-16T05:21:40.158Z,89.85
2022-09-16T05:24:11.161Z,89.68
2022-09-16T05:26:44.437Z,89.67
2022-09-16T05:29:19.039Z,89.31
2022-09-16T05:31:50.763Z,89.42
2022-09-16T05:34:28.461Z,89.53
2022-09-16T05:37:00.678Z,89.69
2022-09-16T05:39:32.373Z,89.44
2022-09-16T05:42:06.009Z,89.36
2022-09-16T05:44:37.690Z,88.58
2022-09-16T05:47:10.804Z,88.67
2022-09-16T05:49:42.846Z,88.64
2022-09-16T05:52:14.481Z,87.95
2022-09-16T05:54:46.075Z,87.55
2022-09-16T05:57:17.694Z,87.68
2022-09-16T05:59:49.465Z,87.22
2022-09-16T06:02:21.174Z,87.54
2022-09-16T06:04:53.248Z,88.30
2022-09-16T06:07:24.917Z,88.26
2022-09-16T06:09:56.528Z,88.33
2022-09-16T06:12:28.268Z,87.90
2022-09-16T06:15:00.518Z,87.90
2022-09-16T06:17:32.245Z,88.13
2022-09-16T06:20:04.490Z,87.34
2022-09-16T06:22:36.610Z,87.31
2022-09-16T06:25:09.749Z,86.42
2022-09-16T06:27:41.506Z,86.63
2022-09-16T06:30:14.090Z,85.74
2022-09-16T06:32:45.801Z,85.65
2022-09-16T06:35:17.475Z,84.98
2022-09-16T06:37:49.164Z,84.11
2022-09-16T06:40:21.480Z,83.99
2022-09-16T06:42:59.482Z,84.67
2022-09-16T06:45:31.871Z,84.67
2022-09-16T06:48:04.134Z,83.93
2022-09-16T06:50:35.749Z,83.17
2022-09-16T06:53:07.354Z,83.33
2022-09-16T06:55:38.964Z,83.28
2022-09-16T06:58:10.571Z,82.94
2022-09-16T07:00:43.115Z,83.34
2022-09-16T07:03:14.879Z,83.26
2022-09-16T07:05:56.583Z,82.61
2022-09-16T07:08:29.179Z,82.08
2022-09-16T07:11:02.661Z,81.76
2022-09-16T07:13:35.248Z,81.62
2022-09-16T07:16:13.221Z,81.33
2022-09-16T07:18:46.959Z,81.15
2022-09-16T07:21:17.937Z,80.47
2022-09-16T07:23:50.876Z,80.28
2022-09-16T07:26:26.274Z,79.89
2022-09-16T07:29:00.329Z,79.92
2022-09-16T07:31:34.468Z,80.01
2022-09-16T07:34:08.359Z,79.41
2022-09-16T07:36:41.899Z,78.31
2022-09-16T07:39:14.745Z,77.50
2022-09-16T07:41:48.411Z,76.89
2022-09-16T07:44:21.973Z,76.80
2022-09-16T07:46:53.633Z,75.58
2022-09-16T07:49:25.520Z,75.25
2022-09-16T07:51:57.151Z,75.17
2022-09-16T07:54:28.992Z,74.42
2022-09-16T07:57:01.203Z,74.08
2022-09-16T07:59:33.135Z,73.96
2022-09-16T08:02:05.330Z,73.44
2022-09-16T08:04:37.336Z,73.40
2022-09-16T08:07:09.648Z,73.33
2022-09-16T08:09:43.401Z,73.59
2022-09-16T08:12:21.614Z,73.16
2022-09-16T08:14:53.253Z,72.92
2022-09-16T08:17:24.921Z,72.03
2022-09-16T08:19:56.588Z,71.89
2022-09-16T08:22:28.349Z,71.92
2022-09-16T08:25:00.090Z,71.25
2022-09-16T08:27:32.055Z,71.49
2022-09-16T08:30:04.877Z,70.60
2022-09-16T08:32:36.803Z,69.33
2022-09-16T08:35:10.880Z,68.68
2022-09-16T08:37:44.965Z,68.64
2022-09-16T08:43:05.505Z,67.04
2022-09-16T08:45:44.316Z,67.83
2022-09-16T08:48:32.633Z,67.82
2022-09-16T08:51:06.172Z,67.45
2022-09-16T08:53:43.509Z,66.53
2022-09-16T08:56:18.886Z,65.83
2022-09-16T08:58:54.726Z,65.67
2022-09-16T09:01:33.778Z,66.01
2022-09-16T09:04:06.452Z,66.28
2022-09-16T09:06:57.529Z,65.59
2022-09-16T09:09:44.826Z,65.95
2022-09-16T09:12:22.070Z,66.02
2022-09-16T09:15:08.390Z,66.15
2022-09-16T09:17:54.739Z,65.24
2022-09-16T09:20:38.672Z,65.50
2022-09-16T09:23:25.722Z,65.84
2022-09-16T09:26:11.379Z,64.82
2022-09-16T09:29:01.003Z,64.60
2022-09-16T09:31:41.716Z,65.04
2022-09-16T09:34:27.736Z,64.91
2022-09-16T09:37:17.597Z,64.38
2022-09-16T09:40:00.896Z,64.04
2022-09-16T09:42:36.996Z,63.86
2022-09-16T09:45:20.297Z,63.79
2022-09-16T09:47:56.812Z,64.00
2022-09-16T09:50:34.718Z,63.91
2022-09-16T09:53:15.825Z,63.60
2022-09-16T09:55:47.539Z,63.67
2022-09-16T09:58:30.090Z,63.06
2022-09-16T10:01:02.300Z,61.73
2022-09-16T10:03:34.119Z,61.40
2022-09-16T10:06:06.256Z,60.80
2022-09-16T10:08:47.237Z,61.01
2022-09-16T10:11:21.229Z,60.18
2022-09-16T10:13:55.422Z,60.07
2022-09-16T10:16:31.958Z,59.91
2022-09-16T10:19:08.957Z,59.32
2022-09-16T10:21:47.788Z,58.61
2022-09-16T10:24:36.919Z,58.35
2022-09-16T10:27:24.108Z,58.85
2022-09-16T10:30:13.641Z,58.88
2022-09-16T10:32:56.711Z,59.42
2022-09-16T10:35:28.152Z,58.99
2022-09-16T10:38:05.225Z,58.86
2022-09-16T10:40:37.692Z,57.79
2022-09-16T10:43:16.069Z,58.18
2022-09-16T10:45:50.607Z,57.14
2022-09-16T10:48:25.265Z,56.96
2022-09-16T10:50:59.485Z,56.69
2022-09-16T10:53:39.581Z,57.26
2022-09-16T10:56:22.916Z,57.05
2022-09-16T10:59:10.922Z,57.01
2022-09-16T11:01:54.471Z,56.77
2022-09-16T11:04:50.220Z,55.73
2022-09-16T11:07:34.722Z,55.06
2022-09-16T11:10:18.954Z,54.71
2022-09-16T11:13:19.253Z,55.22
2022-09-16T11:16:09.047Z,55.96
2022-09-16T11:18:55.299Z,57.50
2022-09-16T11:21:42.219Z,57.91
2022-09-16T11:24:44.827Z,59.51
2022-09-16T11:27:29.903Z,59.78
2022-09-16T11:30:10.723Z,59.14
2022-09-16T11:33:05.637Z,58.81
2022-09-16T11:35:48.565Z,59.00
2022-09-16T11:38:27.768Z,59.55
2022-09-16T11:41:04.890Z,59.38
2022-09-16T11:44:00.659Z,58.90
2022-09-16T11:46:40.704Z,58.13
2022-09-16T11:49:29.882Z,57.46
2022-09-16T11:52:18.899Z,57.25
2022-09-16T11:55:11.408Z,55.44
2022-09-16T11:57:51.100Z,54.45
2022-09-16T12:00:23.004Z,53.70
2022-09-16T12:03:01.437Z,53.87
2022-09-16T12:05:43.310Z,53.78
2022-09-16T12:08:23.184Z,53.52
2022-09-16T12:11:01.718Z,53.41
2022-09-16T12:13:41.880Z,52.91
2022-09-16T12:16:18.130Z,53.13
2022-09-16T12:18:53.636Z,52.17
2022-09-16T12:21:29.533Z,50.94
2022-09-16T12:24:05.257Z,50.47
2022-09-16T12:26:42.110Z,51.28
2022-09-16T12:29:19.607Z,51.08
2022-09-16T12:31:57.018Z,50.79
2022-09-16T12:34:34.331Z,50.99
2022-09-16T12:37:24.262Z,51.59
2022-09-16T12:39:56.134Z,52.04
2022-09-16T12:42:51.847Z,51.79
2022-09-16T12:45:52.799Z,51.47
2022-09-16T12:48:41.443Z,51.25
2022-09-16T12:51:32.876Z,52.15
2022-09-16T12:55:03.972Z,53.49
2022-09-16T12:57:49.179Z,54.31
2022-09-16T13:00:25.685Z,54.89
2022-09-16T13:03:00.656Z,55.23
2022-09-16T13:05:36.155Z,55.92
2022-09-16T13:08:23.736Z,55.87
2022-09-16T13:11:38.714Z,55.23
2022-09-16T13:13:56.282Z,54.48
2022-09-16T13:16:33.685Z,52.88
2022-09-16T13:19:30.384Z,51.19
2022-09-16T13:22:13.526Z,49.97
2022-09-16T13:24:50.878Z,49.64
2022-09-16T13:27:31.939Z,48.91
2022-09-16T13:30:17.559Z,46.48
2022-09-16T13:33:04.829Z,46.14
2022-09-16T13:35:42.613Z,46.97
2022-09-16T13:38:38.825Z,47.28
2022-09-16T13:41:14.664Z,48.84
2022-09-16T13:43:54.863Z,49.01
2022-09-16T13:46:36.311Z,48.97
2022-09-16T13:49:21.170Z,49.75
2022-09-16T13:51:53.855Z,49.70
2022-09-16T13:54:43.178Z,49.67
2022-09-16T13:57:45.796Z,49.93
2022-09-16T14:00:22.445Z,49.79
2022-09-16T14:03:22.696Z,51.12
2022-09-16T14:06:11.380Z,53.60
2022-09-16T14:08:51.603Z,53.35
2022-09-16T14:11:34.617Z,50.52
2022-09-16T14:14:29.855Z,49.56
2022-09-16T14:17:05.701Z,49.16
2022-09-16T14:19:41.220Z,48.66
2022-09-16T14:22:17.922Z,47.86
2022-09-16T14:24:56.584Z,47.69
2022-09-16T14:30:22.885Z,47.46
2022-09-16T14:32:54.741Z,47.38
2022-09-16T14:35:27.838Z,48.02
2022-09-16T14:38:04.633Z,48.33
2022-09-16T14:40:40.625Z,48.65
2022-09-16T14:43:21.232Z,49.21
2022-09-16T14:48:39.246Z,50.33
2022-09-16T14:51:20.880Z,50.95
2022-09-16T14:54:11.586Z,50.73
2022-09-16T14:56:55.802Z,50.65
2022-09-16T14:59:31.263Z,51.05
2022-09-16T15:02:08.473Z,50.96
2022-09-16T15:04:43.937Z,50.96
2022-09-16T15:07:22.847Z,50.04
2022-09-16T15:09:59.466Z,49.65
2022-09-16T15:12:34.527Z,49.20
2022-09-16T15:15:15.982Z,48.29
2022-09-16T15:17:58.416Z,48.40
2022-09-16T15:20:34.475Z,48.83
2022-09-16T15:23:12.725Z,49.30
2022-09-16T15:25:55.565Z,49.40
2022-09-16T15:28:27.442Z,50.01
2022-09-16T15:30:59.670Z,50.64
2022-09-16T15:33:37.682Z,50.94
2022-09-16T15:36:35.614Z,51.05
2022-09-16T15:39:22.617Z,51.70
2022-09-16T15:42:10.804Z,51.53
2022-09-16T15:44:50.064Z,52.28
2022-09-16T15:47:25.766Z,52.24
2022-09-16T15:50:04.422Z,52.97
2022-09-16T15:52:51.531Z,53.28
2022-09-16T15:55:37.456Z,53.47
2022-09-16T15:58:17.060Z,53.72
2022-09-16T16:01:03.877Z,54.17
2022-09-16T16:03:47.568Z,54.81
2022-09-16T16:06:19.418Z,55.07
2022-09-16T16:08:54.752Z,54.99
2022-09-16T16:11:26.755Z,55.12
2022-09-16T16:14:01.949Z,55.66
2022-09-16T16:16:45.710Z,55.84
2022-09-16T16:19:28.761Z,56.08
2022-09-16T16:22:00.728Z,56.10
2022-09-16T16:24:33.303Z,56.39
2022-09-16T16:27:05.403Z,56.58
2022-09-16T16:29:38.882Z,56.97
2022-09-16T16:32:13.694Z,57.46
2022-09-16T16:34:47.313Z,57.23
2022-09-16T16:37:44.430Z,56.93
2022-09-16T16:40:12.304Z,57.29
2022-09-16T16:42:44.656Z,57.29
2022-09-16T16:45:17.125Z,57.75
2022-09-16T16:47:47.702Z,57.93
2022-09-16T16:50:19.641Z,57.88
2022-09-16T16:52:54.042Z,58.13
2022-09-16T16:55:26.186Z,58.01
2022-09-16T16:57:58.228Z,58.04
2022-09-16T17:00:29.817Z,57.98
2022-09-16T17:03:01.435Z,58.20
2022-09-16T17:05:33.173Z,58.38
2022-09-16T17:08:05.064Z,58.62
2022-09-16T17:10:36.808Z,59.17
2022-09-16T17:13:08.593Z,59.41
2022-09-16T17:15:40.660Z,59.35
2022-09-16T17:18:12.421Z,59.67
2022-09-16T17:20:44.166Z,59.63
2022-09-16T17:23:15.854Z,60.24
2022-09-16T17:25:51.737Z,60.17
2022-09-16T17:28:23.555Z,60.42
2022-09-16T17:30:55.663Z,60.50
2022-09-16T17:33:27.713Z,60.50
2022-09-16T17:36:07.768Z,60.59
2022-09-16T17:38:39.455Z,60.78
2022-09-16T17:41:13.013Z,60.79
2022-09-16T17:43:45.939Z,61.07
2022-09-16T17:46:20.366Z,61.50
2022-09-16T17:48:52.816Z,61.61
2022-09-16T17:51:25.021Z,61.48
2022-09-16T17:53:56.541Z,61.79
2022-09-16T17:56:28.330Z,61.82
2022-09-16T17:59:00.164Z,61.66
2022-09-16T18:01:31.994Z,61.49
2022-09-16T18:04:04.730Z,61.66
2022-09-16T18:06:43.484Z,61.64
2022-09-16T18:09:17.216Z,61.55
2022-09-16T18:11:49.160Z,61.13
2022-09-16T18:14:23.420Z,61.50
2022-09-16T18:16:56.197Z,61.56
2022-09-16T18:19:28.234Z,61.68
2022-09-16T18:22:00.065Z,62.29
2022-09-16T18:24:31.883Z,62.47
2022-09-16T18:27:03.529Z,62.77
2022-09-16T18:29:35.440Z,62.88
2022-09-16T18:32:08.733Z,63.34
2022-09-16T18:34:40.452Z,63.45
2022-09-16T18:37:13.172Z,63.79
2022-09-16T18:39:43.304Z,64.59
2022-09-16T18:42:15.361Z,64.96
2022-09-16T18:44:48.030Z,65.55
2022-09-16T18:47:18.340Z,65.69
2022-09-16T18:49:50.054Z,66.18
2022-09-16T18:52:22.856Z,67.10
2022-09-16T18:54:54.951Z,67.47
2022-09-16T18:57:26.629Z,67.65
2022-09-16T18:59:58.348Z,67.65
2022-09-16T19:02:30.187Z,68.32
2022-09-16T19:05:02.065Z,68.43
2022-09-16T19:07:33.753Z,69.37
2022-09-16T19:10:05.891Z,69.56
2022-09-16T19:12:39.334Z,70.46
2022-09-16T19:15:13.422Z,70.48
2022-09-16T19:17:45.153Z,70.37
2022-09-16T19:20:17.365Z,70.62
2022-09-16T19:22:49.085Z,70.75
2022-09-16T19:25:20.842Z,70.90
2022-09-16T19:27:53.177Z,71.13
2022-09-16T19:30:26.394Z,71.43
2022-09-16T19:32:59.236Z,71.72
2022-09-16T19:35:34.333Z,72.05
2022-09-16T19:38:06.389Z,72.22
2022-09-16T19:40:38.630Z,72.49
2022-09-16T19:43:10.417Z,73.39
2022-09-16T19:45:42.719Z,73.81
2022-09-16T19:48:15.394Z,73.92
2022-09-16T19:50:53.974Z,74.01
2022-09-16T19:53:26.054Z,74.39
2022-09-16T19:56:03.250Z,74.42
2022-09-16T19:58:37.081Z,74.87
2022-09-16T20:01:10.733Z,75.06
2022-09-16T20:03:44.604Z,75.42
2022-09-16T20:06:19.008Z,75.06
2022-09-16T20:08:53.841Z,75.12
2022-09-16T20:11:27.572Z,75.01
2022-09-16T20:14:01.187Z,74.88
2022-09-16T20:16:36.795Z,74.55
2022-09-16T20:19:10.598Z,74.73
2022-09-16T20:21:43.098Z,74.50
2022-09-16T20:24:19.177Z,74.33
2022-09-16T20:26:57.921Z,74.55
2022-09-16T20:29:30.871Z,74.14
2022-09-16T20:32:04.039Z,74.48
2022-09-16T20:34:35.879Z,74.70
2022-09-16T20:37:08.097Z,74.90
2022-09-16T20:39:41.209Z,74.74
2022-09-16T20:42:12.889Z,74.81
2022-09-16T20:44:48.851Z,74.97
2022-09-16T20:47:21.589Z,75.41
2022-09-16T20:49:53.645Z,74.91
2022-09-16T20:52:25.726Z,75.02
2022-09-16T20:54:57.819Z,74.77
2022-09-16T20:57:29.770Z,74.28
2022-09-16T21:00:01.777Z,74.13
2022-09-16T21:02:33.583Z,74.33
2022-09-16T21:05:05.719Z,74.37
2022-09-16T21:07:37.740Z,73.75
2022-09-16T21:10:11.148Z,73.52
2022-09-16T21:12:42.831Z,73.20
2022-09-16T21:15:16.264Z,72.93
2022-09-16T21:17:47.893Z,73.00
2022-09-16T21:20:20.362Z,73.01
2022-09-16T21:22:52.016Z,72.99
2022-09-16T21:25:24.623Z,73.77
2022-09-16T21:27:57.049Z,73.52
2022-09-16T21:30:30.500Z,73.39
2022-09-16T21:33:02.777Z,73.30
2022-09-16T21:35:34.565Z,72.95
2022-09-16T21:38:06.289Z,73.05
2022-09-16T21:40:39.954Z,73.06
2022-09-16T21:43:12.254Z,72.91
2022-09-16T21:45:47.213Z,72.97
2022-09-16T21:48:19.585Z,72.51
2022-09-16T21:50:54.453Z,72.47
2022-09-16T21:53:26.225Z,72.52
2022-09-16T21:56:04.537Z,72.55
2022-09-16T21:58:36.696Z,72.22
2022-09-16T22:01:11.487Z,71.92
2022-09-16T22:03:45.234Z,71.55
2022-09-16T22:06:19.269Z,71.73
2022-09-16T22:08:51.156Z,71.32
2022-09-16T22:11:25.144Z,71.50
2022-09-16T22:14:00.575Z,71.24
2022-09-16T22:16:34.347Z,71.41
2022-09-16T22:19:08.569Z,71.27
2022-09-16T22:21:43.074Z,70.87
2022-09-16T22:24:16.262Z,70.87
2022-09-16T22:26:48.897Z,70.84
2022-09-16T22:29:21.056Z,70.71
2022-09-16T22:31:52.950Z,70.66
2022-09-16T22:34:24.702Z,71.05
2022-09-16T22:36:56.794Z,71.23
2022-09-16T22:39:28.651Z,70.99
2022-09-16T22:42:00.273Z,71.33
2022-09-16T22:44:32.103Z,71.44
2022-09-16T22:47:03.809Z,71.80
2022-09-16T22:49:35.591Z,71.71
2022-09-16T22:52:07.244Z,71.84
2022-09-16T22:54:38.889Z,72.03
2022-09-16T22:57:10.529Z,72.24
2022-09-16T22:59:42.235Z,72.40
2022-09-16T23:02:16.243Z,72.12
2022-09-16T23:04:48.019Z,72.26
2022-09-16T23:07:19.728Z,72.38
2022-09-16T23:09:51.378Z,72.54
2022-09-16T23:12:23.091Z,72.81
2022-09-16T23:14:54.799Z,73.09
2022-09-16T23:17:26.466Z,72.83
2022-09-16T23:19:58.317Z,73.05
2022-09-16T23:22:30.586Z,73.28
2022-09-16T23:25:02.284Z,73.24
2022-09-16T23:27:34.917Z,73.52
2022-09-16T23:30:07.902Z,74.20
2022-09-16T23:32:39.600Z,74.73
2022-09-16T23:35:12.295Z,74.56
2022-09-16T23:37:42.545Z,75.33
2022-09-16T23:40:15.025Z,75.74
2022-09-16T23:42:46.687Z,75.86
2022-09-16T23:45:18.561Z,75.74
2022-09-16T23:47:50.277Z,75.68
2022-09-16T23:50:21.998Z,75.91
2022-09-16T23:52:54.177Z,76.50
2022-09-16T23:55:26.069Z,77.10
2022-09-16T23:57:57.864Z,77.31
